Ashley, OH

9:09 AM EST on November 12, 2019 (GMT -0500)
Ashley | | Change Station
Active Advisory: Winter Weather Advisory

Elev 974 ft 40.41 °N, 82.95 °W | Updated 21 seconds ago

Clear
Clear
19.2 °F
Feels Like 19 °F
N
0.9
Wind Variable Wind from SSE
Gusts 1.1 mph

Today
High -- | Low -- °F
--% Chance of Precip.
Yesterday
High -- | Low -- °F
Precip. -- in
Pressure 30.27 in
Visibility 10.0 miles
Clouds Clear
Windchill 19 °F
Dew Point 16 °F
Humidity 89%
Rainfall 0.00 in
Snow Depth Not available.
7:14 AM 5:17 PM
Full, 100% visible
METAR KDLZ 121259Z AUTO 30011KT 10SM CLR M08/M10 A3027 RMK AO2
Pressure 30.27 in
Visibility 10.0 miles
Clouds Clear
Windchill 19 °F
Dew Point 16 °F
Humidity 89%
Rainfall 0.00 in
Snow Depth Not available.
7:14 AM 5:17 PM
Full, 100% visible
METAR KDLZ 121259Z AUTO 30011KT 10SM CLR M08/M10 A3027 RMK AO2

Get Your Daily Forecast Email!

Thanks for signing up!

Be on the lookout for a verification email in your inbox.

You'll start receiving severe weather alerts in your inbox..

×

10-Day Weather Forecast

Almanac

Astronomy

Nov. 12, 2019 Rise Set
Actual Time
Civil Twilight
Nautical Twilight
Astronomical Twilight
Moon
Length of Visible Light
Length of Day
Tomorrow will be .
, % of the Moon is Illuminated

Today's Extremes

State Highs State Lows

Community

WunderPhotos

Category 6

Welcome to Category 6. This is the collective home for Weather Underground's featured writeups by Dr. Jeff Masters (right), Bob Henson (left), Chris Burt, and other regular contributors.

Nearby

Air Quality

  Air Quality AQ Index Pollutant
Not available.

Snow Depth

Station Depth Elevation

Earthquake Activity

City Distance Mag. Time & Date
Minimum magnitude displayed is 2.5.

Coastal Water Temperatures

Place Temperature

Stations

Nearby Weather Stations

Station Location Temp. Windchill Dew Point Humidity Wind Precip. Elev Updated Type
                   

Watches & Warnings

Winter Weather Advisory
Issued: 6:19 AM EST Nov. 12, 2019 – National Weather Service

... Winter Weather Advisory now in effect until 11 am EST this
morning...

* what... icy roads continuing. Widespread snow has come to an end,
however pavement temperatures have dropped below freezing in
many locations allowing for the potential for icy roadways.
Isolated to scattered snow showers will be possible today.

* Where... portions of east central and southeast Indiana,
northeast and northern Kentucky and central, south central,
southwest and west central Ohio.

* When... until 11 am EST this morning.

* Impacts... plan on icy Road conditions. Several accidents have
already occurred around the area. The hazardous conditions will
likely impact the morning commute.

Precautionary/preparedness actions...

Slow down and use caution while traveling.

Additional information can be found at www.Weather.Gov/iln as
well as on our facebook and twitter pages.